createdAt,value
2023-02-23T00:00:17.521Z,10.81
2023-02-23T00:01:17.826Z,10.86
2023-02-23T00:02:17.539Z,10.86
2023-02-23T00:03:17.543Z,10.89
2023-02-23T00:04:17.472Z,10.93
2023-02-23T00:05:17.469Z,10.94
2023-02-23T00:06:17.520Z,10.97
2023-02-23T00:07:17.441Z,10.97
2023-02-23T00:08:17.453Z,11.00
2023-02-23T00:09:17.410Z,11.02
2023-02-23T00:10:17.418Z,11.02
2023-02-23T00:11:17.806Z,11.04
2023-02-23T00:12:17.462Z,11.07
2023-02-23T00:13:17.381Z,11.05
2023-02-23T00:14:17.390Z,11.08
2023-02-23T00:15:17.349Z,11.07
2023-02-23T00:16:17.344Z,10.97
2023-02-23T00:17:17.330Z,10.96
2023-02-23T00:18:17.327Z,10.99
2023-02-23T00:19:17.378Z,11.04
2023-02-23T00:20:17.310Z,10.99
2023-02-23T00:21:17.562Z,11.04
2023-02-23T00:22:17.280Z,11.04
2023-02-23T00:23:17.267Z,11.02
2023-02-23T00:24:17.250Z,11.04
2023-02-23T00:25:17.265Z,11.04
2023-02-23T00:26:17.243Z,11.08
2023-02-23T00:27:17.211Z,11.10
2023-02-23T00:28:17.210Z,11.07
2023-02-23T00:29:17.229Z,11.05
2023-02-23T00:30:17.192Z,11.07
2023-02-23T00:31:17.466Z,11.10
2023-02-23T00:32:17.225Z,11.11
2023-02-23T00:33:17.156Z,11.12
2023-02-23T00:34:17.147Z,11.11
2023-02-23T00:35:17.147Z,11.07
2023-02-23T00:36:17.123Z,11.05
2023-02-23T00:37:17.126Z,11.07
2023-02-23T00:38:17.094Z,11.10
2023-02-23T00:39:17.084Z,11.10
2023-02-23T00:40:17.078Z,11.17
2023-02-23T00:41:17.417Z,11.18
2023-02-23T00:42:17.058Z,11.19
2023-02-23T00:43:17.064Z,11.23
2023-02-23T00:44:17.040Z,11.25
2023-02-23T00:45:17.017Z,11.18
2023-02-23T00:46:17.045Z,11.10
2023-02-23T00:47:16.994Z,11.10
2023-02-23T00:48:16.985Z,11.04
2023-02-23T00:49:17.015Z,10.96
2023-02-23T00:50:16.966Z,10.96
2023-02-23T00:51:17.215Z,10.94
2023-02-23T00:52:16.965Z,11.00
2023-02-23T00:53:16.938Z,11.10
2023-02-23T00:54:16.952Z,11.15
2023-02-23T00:55:16.916Z,11.17
2023-02-23T00:56:16.899Z,11.15
2023-02-23T00:57:16.890Z,11.12
2023-02-23T00:58:16.876Z,11.17
2023-02-23T00:59:16.860Z,11.23
2023-02-23T01:00:16.880Z,11.23
2023-02-23T01:01:17.109Z,11.23
2023-02-23T01:02:16.854Z,11.22
2023-02-23T01:03:16.823Z,11.17
2023-02-23T01:04:16.849Z,11.11
2023-02-23T01:05:16.813Z,11.07
2023-02-23T01:06:16.795Z,11.14
2023-02-23T01:07:16.762Z,11.11
2023-02-23T01:08:16.761Z,11.11
2023-02-23T01:09:16.760Z,11.08
2023-02-23T01:10:16.741Z,11.02
2023-02-23T01:11:17.116Z,11.02
2023-02-23T01:12:16.710Z,11.04
2023-02-23T01:13:16.699Z,10.99
2023-02-23T01:14:16.690Z,11.02
2023-02-23T01:15:16.683Z,11.04
2023-02-23T01:16:16.678Z,11.15
2023-02-23T01:17:16.678Z,11.17
2023-02-23T01:18:16.639Z,11.07
2023-02-23T01:19:16.629Z,11.07
2023-02-23T01:20:16.618Z,11.07
2023-02-23T01:21:16.856Z,11.00
2023-02-23T01:22:16.598Z,11.10
2023-02-23T01:23:16.615Z,11.17
2023-02-23T01:24:16.577Z,11.26
2023-02-23T01:25:16.605Z,11.29
2023-02-23T01:26:16.548Z,11.30
2023-02-23T01:27:16.542Z,11.29
2023-02-23T01:28:16.530Z,11.27
2023-02-23T01:29:16.541Z,11.30
2023-02-23T01:30:16.511Z,11.30
2023-02-23T01:31:16.774Z,11.26
2023-02-23T01:32:16.566Z,11.25
2023-02-23T01:33:16.477Z,11.19
2023-02-23T01:34:16.478Z,11.19
2023-02-23T01:35:16.479Z,11.19
2023-02-23T01:36:16.440Z,11.17
2023-02-23T01:37:16.434Z,11.15
2023-02-23T01:38:16.436Z,11.15
2023-02-23T01:39:16.428Z,11.17
2023-02-23T01:40:16.405Z,11.15
2023-02-23T01:41:16.717Z,11.18
2023-02-23T01:42:16.367Z,11.18
2023-02-23T01:43:16.366Z,11.27
2023-02-23T01:44:16.350Z,11.29
2023-02-23T01:45:16.336Z,11.32
2023-02-23T01:46:16.375Z,11.27
2023-02-23T01:47:16.308Z,11.22
2023-02-23T01:48:16.313Z,11.23
2023-02-23T01:49:16.344Z,11.19
2023-02-23T01:50:16.305Z,11.25
2023-02-23T01:51:16.456Z,11.25
2023-02-23T01:52:16.299Z,11.25
2023-02-23T01:53:16.257Z,11.19
2023-02-23T01:54:16.263Z,11.25
2023-02-23T01:55:16.227Z,11.30
2023-02-23T01:56:16.218Z,11.37
2023-02-23T01:57:16.197Z,11.41
2023-02-23T01:58:16.215Z,11.45
2023-02-23T01:59:16.177Z,11.50
2023-02-23T02:00:16.167Z,11.51
2023-02-23T02:01:16.399Z,11.54
2023-02-23T02:02:16.165Z,11.54
2023-02-23T02:03:16.139Z,11.52
2023-02-23T02:04:16.137Z,11.55
2023-02-23T02:05:16.197Z,11.59
2023-02-23T02:06:16.098Z,11.52
2023-02-23T02:07:16.090Z,11.54
2023-02-23T02:08:16.077Z,11.59
2023-02-23T02:09:16.087Z,11.62
2023-02-23T02:10:16.057Z,11.63
2023-02-23T02:11:16.135Z,11.65
2023-02-23T02:12:16.038Z,11.68
2023-02-23T02:13:16.027Z,11.69
2023-02-23T02:14:16.007Z,11.60
2023-02-23T02:15:16.017Z,11.59
2023-02-23T02:16:16.012Z,11.52
2023-02-23T02:17:15.980Z,11.55
2023-02-23T02:18:15.968Z,11.55
2023-02-23T02:19:15.948Z,11.52
2023-02-23T02:20:15.953Z,11.54
2023-02-23T02:21:16.199Z,11.54
2023-02-23T02:22:15.919Z,11.55
2023-02-23T02:23:15.916Z,11.55
2023-02-23T02:24:15.902Z,11.59
2023-02-23T02:25:15.889Z,11.59
2023-02-23T02:26:15.882Z,11.57
2023-02-23T02:27:15.884Z,11.55
2023-02-23T02:28:15.857Z,11.55
2023-02-23T02:29:15.841Z,11.55
2023-02-23T02:30:15.838Z,11.35
2023-02-23T02:31:15.909Z,11.33
2023-02-23T02:32:15.862Z,11.32
2023-02-23T02:33:15.801Z,11.29
2023-02-23T02:34:15.790Z,11.32
2023-02-23T02:35:15.768Z,11.33
2023-02-23T02:36:15.769Z,11.27
2023-02-23T02:37:15.748Z,11.25
2023-02-23T02:38:15.758Z,11.26
2023-02-23T02:39:15.757Z,11.35
2023-02-23T02:40:15.738Z,11.40
2023-02-23T02:41:15.732Z,11.43
2023-02-23T02:42:15.699Z,11.40
2023-02-23T02:43:15.687Z,11.44
2023-02-23T02:44:15.687Z,11.41
2023-02-23T02:45:15.657Z,11.41
2023-02-23T02:46:15.665Z,11.40
2023-02-23T02:47:15.639Z,11.41
2023-02-23T02:48:15.630Z,11.32
2023-02-23T02:49:15.624Z,11.26
2023-02-23T02:50:15.634Z,11.19
2023-02-23T02:51:15.635Z,11.17
2023-02-23T02:52:15.580Z,11.23
2023-02-23T02:53:15.580Z,11.26
2023-02-23T02:54:15.565Z,11.29
2023-02-23T02:55:15.551Z,11.26
2023-02-23T02:56:15.551Z,11.22
2023-02-23T02:57:15.532Z,11.15
2023-02-23T02:58:15.513Z,11.07
2023-02-23T02:59:15.515Z,10.99
2023-02-23T03:00:15.493Z,10.96
2023-02-23T03:01:15.573Z,10.86
2023-02-23T03:02:15.471Z,10.86
2023-02-23T03:03:15.472Z,10.92
2023-02-23T03:04:15.453Z,10.97
2023-02-23T03:05:15.459Z,11.00
2023-02-23T03:06:15.432Z,11.00
2023-02-23T03:07:15.431Z,10.99
2023-02-23T03:08:22.572Z,11.00
2023-02-23T03:09:15.404Z,10.86
2023-02-23T03:10:15.391Z,10.89
2023-02-23T03:11:15.385Z,10.94
2023-02-23T03:12:15.396Z,10.97
2023-02-23T03:13:15.362Z,11.00
2023-02-23T03:14:15.341Z,11.04
2023-02-23T03:15:15.341Z,11.10
2023-02-23T03:16:15.458Z,11.11
2023-02-23T03:17:15.327Z,11.11
2023-02-23T03:18:15.356Z,11.12
2023-02-23T03:19:15.302Z,11.14
2023-02-23T03:20:15.308Z,11.12
2023-02-23T03:21:15.272Z,11.12
2023-02-23T03:22:15.281Z,11.14
2023-02-23T03:23:15.255Z,11.11
2023-02-23T03:24:15.250Z,11.10
2023-02-23T03:25:15.228Z,11.08
2023-02-23T03:26:15.210Z,11.08
2023-02-23T03:27:15.193Z,11.11
2023-02-23T03:28:15.248Z,11.08
2023-02-23T03:29:15.177Z,11.05
2023-02-23T03:30:15.202Z,11.08
2023-02-23T03:31:15.192Z,11.08
2023-02-23T03:32:15.174Z,11.11
2023-02-23T03:33:15.244Z,11.11
2023-02-23T03:34:15.125Z,11.12
2023-02-23T03:35:15.136Z,11.14
2023-02-23T03:36:15.098Z,11.15
2023-02-23T03:37:15.085Z,11.14
2023-02-23T03:38:15.118Z,11.12
2023-02-23T03:39:15.090Z,11.14
2023-02-23T03:40:15.060Z,11.12
2023-02-23T03:41:15.064Z,11.14
2023-02-23T03:42:15.062Z,11.14
2023-02-23T03:43:15.122Z,11.12
2023-02-23T03:44:15.003Z,11.15
2023-02-23T03:45:14.997Z,11.12
2023-02-23T03:46:14.985Z,11.10
2023-02-23T03:47:15.000Z,11.10
2023-02-23T03:48:14.974Z,11.08
2023-02-23T03:49:14.957Z,11.08
2023-02-23T03:50:14.943Z,11.08
2023-02-23T03:51:14.933Z,11.07
2023-02-23T03:52:14.936Z,11.05
2023-02-23T03:53:15.097Z,11.05
2023-02-23T03:54:14.892Z,11.08
2023-02-23T03:55:14.892Z,11.07
2023-02-23T03:56:14.880Z,11.05
2023-02-23T03:57:14.859Z,11.05
2023-02-23T03:58:14.891Z,11.05
2023-02-23T03:59:14.860Z,11.02
2023-02-23T04:00:14.838Z,11.00
2023-02-23T04:01:14.844Z,11.00
2023-02-23T04:02:14.825Z,10.96
2023-02-23T04:03:14.816Z,10.96
2023-02-23T04:04:14.790Z,10.96
2023-02-23T04:05:14.781Z,11.00
2023-02-23T04:06:14.788Z,10.96
2023-02-23T04:07:14.750Z,11.02
2023-02-23T04:08:14.761Z,11.05
2023-02-23T04:09:14.753Z,11.08
2023-02-23T04:10:14.708Z,11.08
2023-02-23T04:11:14.698Z,11.11
2023-02-23T04:12:14.689Z,11.11
2023-02-23T04:13:14.693Z,11.11
2023-02-23T04:14:14.658Z,11.05
2023-02-23T04:15:14.668Z,11.08
2023-02-23T04:16:14.669Z,11.08
2023-02-23T04:17:14.642Z,11.11
2023-02-23T04:18:14.650Z,11.11
2023-02-23T04:19:14.617Z,11.10
2023-02-23T04:20:14.650Z,11.11
2023-02-23T04:21:14.623Z,11.04
2023-02-23T04:22:14.598Z,10.99
2023-02-23T04:23:14.571Z,11.00
2023-02-23T04:24:14.582Z,10.97
2023-02-23T04:25:16.154Z,10.96
2023-02-23T04:26:14.568Z,10.97
2023-02-23T04:27:14.534Z,10.93
2023-02-23T04:28:14.529Z,10.93
2023-02-23T04:29:14.501Z,10.94
2023-02-23T04:30:14.498Z,10.94
2023-02-23T04:31:14.499Z,10.93
2023-02-23T04:32:14.582Z,10.94
2023-02-23T04:33:14.479Z,10.93
2023-02-23T04:34:14.441Z,10.93
2023-02-23T04:35:14.449Z,10.94
2023-02-23T04:36:14.429Z,10.96
2023-02-23T04:37:14.426Z,10.99
2023-02-23T04:38:14.432Z,10.97
2023-02-23T04:39:14.390Z,10.97
2023-02-23T04:40:14.392Z,10.99
2023-02-23T04:41:14.385Z,10.97
2023-02-23T04:42:14.371Z,10.99
2023-02-23T04:43:14.376Z,11.04
2023-02-23T04:44:14.353Z,11.07
2023-02-23T04:45:14.323Z,11.08
2023-02-23T04:46:14.367Z,11.10
2023-02-23T04:47:14.309Z,11.08
2023-02-23T04:48:14.315Z,11.11
2023-02-23T04:49:14.283Z,11.12
2023-02-23T04:50:14.332Z,11.11
2023-02-23T04:51:14.262Z,11.14
2023-02-23T04:52:14.249Z,11.17
2023-02-23T04:53:14.255Z,11.19
2023-02-23T04:54:14.233Z,11.22
2023-02-23T04:55:14.234Z,11.23
2023-02-23T04:56:14.221Z,11.23
2023-02-23T04:57:14.198Z,11.22
2023-02-23T04:58:14.187Z,11.22
2023-02-23T04:59:14.193Z,11.23
2023-02-23T05:00:14.189Z,11.23
2023-02-23T05:01:14.159Z,11.22
2023-02-23T05:02:14.153Z,11.22
2023-02-23T05:03:14.131Z,11.22
2023-02-23T05:04:14.120Z,11.14
2023-02-23T05:05:14.107Z,11.12
2023-02-23T05:06:14.101Z,11.18
2023-02-23T05:07:14.083Z,11.23
2023-02-23T05:08:14.083Z,11.26
2023-02-23T05:09:14.069Z,11.29
2023-02-23T05:10:14.098Z,11.29
2023-02-23T05:11:14.052Z,11.29
2023-02-23T05:12:14.022Z,11.33
2023-02-23T05:13:14.043Z,11.30
2023-02-23T05:14:14.006Z,11.26
2023-02-23T05:15:14.014Z,11.29
2023-02-23T05:16:14.042Z,11.32
2023-02-23T05:17:13.980Z,11.35
2023-02-23T05:18:13.969Z,11.35
2023-02-23T05:19:13.985Z,11.36
2023-02-23T05:20:13.956Z,11.36
2023-02-23T05:21:13.927Z,11.37
2023-02-23T05:22:13.936Z,11.36
2023-02-23T05:23:13.913Z,11.40
2023-02-23T05:24:13.892Z,11.37
2023-02-23T05:25:13.894Z,11.40
2023-02-23T05:26:13.871Z,11.35
2023-02-23T05:27:13.888Z,11.35
2023-02-23T05:28:14.242Z,11.32
2023-02-23T05:29:13.851Z,11.36
2023-02-23T05:30:13.848Z,11.37
2023-02-23T05:31:13.928Z,11.37
2023-02-23T05:32:13.872Z,11.37
2023-02-23T05:33:13.803Z,11.37
2023-02-23T05:34:13.783Z,11.41
2023-02-23T05:35:13.771Z,11.40
2023-02-23T05:36:13.774Z,11.37
2023-02-23T05:37:13.752Z,11.37
2023-02-23T05:38:13.730Z,11.40
2023-02-23T05:39:13.722Z,11.40
2023-02-23T05:40:13.722Z,11.41
2023-02-23T05:41:13.704Z,11.43
2023-02-23T05:42:13.704Z,11.41
2023-02-23T05:43:13.680Z,11.43
2023-02-23T05:44:13.702Z,11.43
2023-02-23T05:45:13.653Z,11.40
2023-02-23T05:46:13.681Z,11.40
2023-02-23T05:47:13.640Z,11.37
2023-02-23T05:48:13.629Z,11.37
2023-02-23T05:49:13.606Z,11.35
2023-02-23T05:50:13.589Z,11.35
2023-02-23T05:51:13.597Z,11.32
2023-02-23T05:52:13.584Z,11.32
2023-02-23T05:53:13.588Z,11.30
2023-02-23T05:54:13.558Z,11.32
2023-02-23T05:55:13.582Z,11.36
2023-02-23T05:56:13.545Z,11.37
2023-02-23T05:57:13.518Z,11.43
2023-02-23T05:58:13.509Z,11.44
2023-02-23T05:59:13.525Z,11.45
2023-02-23T06:00:13.630Z,11.37
2023-02-23T06:01:13.480Z,11.41
2023-02-23T06:02:13.501Z,11.47
2023-02-23T06:03:13.552Z,11.47
2023-02-23T06:04:13.443Z,11.47
2023-02-23T06:05:13.511Z,11.52
2023-02-23T06:06:13.420Z,11.52
2023-02-23T06:07:13.410Z,11.52
2023-02-23T06:08:13.405Z,11.54
2023-02-23T06:09:13.384Z,11.57
2023-02-23T06:10:13.398Z,11.60
2023-02-23T06:11:13.362Z,11.62
2023-02-23T06:12:13.421Z,11.60
2023-02-23T06:13:13.342Z,11.63
2023-02-23T06:14:13.511Z,11.65
2023-02-23T06:15:13.334Z,11.60
2023-02-23T06:16:13.387Z,11.59
2023-02-23T06:17:13.321Z,11.63
2023-02-23T06:18:13.289Z,11.62
2023-02-23T06:19:13.276Z,11.62
2023-02-23T06:20:13.270Z,11.59
2023-02-23T06:21:13.249Z,11.57
2023-02-23T06:22:13.251Z,11.62
2023-02-23T06:23:13.236Z,11.65
2023-02-23T06:24:13.212Z,11.66
2023-02-23T06:25:13.211Z,11.62
2023-02-23T06:26:13.191Z,11.65
2023-02-23T06:27:13.211Z,11.65
2023-02-23T06:28:13.172Z,11.60
2023-02-23T06:29:13.162Z,11.57
2023-02-23T06:30:13.141Z,11.60
2023-02-23T06:31:13.163Z,11.59
2023-02-23T06:32:13.303Z,11.60
2023-02-23T06:33:13.140Z,11.59
2023-02-23T06:34:13.102Z,11.57
2023-02-23T06:35:13.091Z,11.54
2023-02-23T06:36:13.081Z,11.54
2023-02-23T06:37:13.077Z,11.62
2023-02-23T06:38:13.052Z,11.66
2023-02-23T06:39:13.071Z,11.72
2023-02-23T06:40:13.044Z,11.77
2023-02-23T06:41:13.052Z,11.78
2023-02-23T06:42:13.071Z,11.83
2023-02-23T06:43:13.000Z,11.83
2023-02-23T06:44:13.006Z,11.83
2023-02-23T06:45:13.000Z,11.84
2023-02-23T06:46:13.006Z,11.84
2023-02-23T06:47:12.961Z,11.86
2023-02-23T06:48:12.947Z,11.86
2023-02-23T06:49:14.967Z,11.88
2023-02-23T06:50:12.934Z,11.86
2023-02-23T06:51:12.945Z,11.88
2023-02-23T06:52:12.901Z,11.90
2023-02-23T06:53:12.896Z,11.94
2023-02-23T06:54:12.871Z,11.94
2023-02-23T06:55:12.869Z,11.94
2023-02-23T06:56:12.856Z,11.95
2023-02-23T06:57:12.861Z,11.99
2023-02-23T06:58:12.833Z,12.02
2023-02-23T06:59:12.986Z,12.02
2023-02-23T07:00:12.820Z,12.03
2023-02-23T07:01:12.809Z,12.04
2023-02-23T07:02:12.802Z,12.04
2023-02-23T07:03:12.788Z,12.09
2023-02-23T07:04:14.881Z,12.10
2023-02-23T07:05:12.751Z,12.12
2023-02-23T07:06:12.738Z,12.12
2023-02-23T07:07:12.765Z,12.13
2023-02-23T07:08:12.719Z,12.10
2023-02-23T07:09:12.740Z,12.10
2023-02-23T07:10:12.700Z,12.12
2023-02-23T07:11:12.708Z,12.04
2023-02-23T07:12:12.675Z,12.07
2023-02-23T07:13:12.683Z,12.06
2023-02-23T07:14:15.356Z,12.04
2023-02-23T07:15:13.655Z,12.03
2023-02-23T07:16:12.668Z,12.09
2023-02-23T07:17:12.798Z,12.10
2023-02-23T07:18:12.616Z,12.12
2023-02-23T07:19:12.585Z,12.13
2023-02-23T07:20:12.590Z,12.15
2023-02-23T07:21:12.585Z,12.15
2023-02-23T07:22:12.565Z,12.15
2023-02-23T07:23:12.571Z,12.18
2023-02-23T07:24:12.538Z,12.18
2023-02-23T07:25:12.528Z,12.21
2023-02-23T07:26:12.513Z,12.24
2023-02-23T07:27:12.517Z,12.24
2023-02-23T07:28:12.486Z,12.25
2023-02-23T07:29:12.473Z,12.29
2023-02-23T07:30:12.464Z,12.31
2023-02-23T07:31:12.483Z,12.35
2023-02-23T07:32:12.524Z,12.36
2023-02-23T07:33:12.454Z,12.35
2023-02-23T07:34:12.416Z,12.37
2023-02-23T07:35:12.404Z,12.37
2023-02-23T07:36:12.397Z,12.39
2023-02-23T07:37:12.386Z,12.43
2023-02-23T07:38:12.386Z,12.45
2023-02-23T07:39:12.378Z,12.43
2023-02-23T07:40:12.366Z,12.46
2023-02-23T07:41:12.340Z,12.46
2023-02-23T07:42:12.339Z,12.47
2023-02-23T07:43:12.343Z,12.49
2023-02-23T07:44:12.312Z,12.50
2023-02-23T07:45:12.324Z,12.50
2023-02-23T07:46:12.364Z,12.50
2023-02-23T07:47:12.271Z,12.53
2023-02-23T07:48:12.270Z,12.49
2023-02-23T07:49:12.253Z,12.53
2023-02-23T07:50:12.253Z,12.40
2023-02-23T07:51:12.254Z,12.39
2023-02-23T07:52:12.225Z,12.42
2023-02-23T07:53:12.214Z,12.42
2023-02-23T07:54:12.222Z,12.42
2023-02-23T07:55:12.199Z,12.46
2023-02-23T07:56:12.195Z,12.46
2023-02-23T07:57:12.198Z,12.43
2023-02-23T07:58:12.163Z,12.43
2023-02-23T07:59:12.191Z,12.46
2023-02-23T08:00:12.131Z,12.49
2023-02-23T08:01:12.167Z,12.55
2023-02-23T08:02:12.123Z,12.58
2023-02-23T08:03:12.117Z,12.57
2023-02-23T08:04:12.109Z,12.60
2023-02-23T08:05:12.142Z,12.62
2023-02-23T08:06:12.064Z,12.64
2023-02-23T08:07:12.069Z,12.65
2023-02-23T08:08:12.052Z,12.67
2023-02-23T08:09:12.066Z,12.70
2023-02-23T08:10:12.029Z,12.68
2023-02-23T08:11:12.010Z,12.68
2023-02-23T08:12:12.006Z,12.75
2023-02-23T08:13:11.983Z,12.78
2023-02-23T08:14:11.973Z,12.80
2023-02-23T08:15:12.004Z,12.79
2023-02-23T08:16:11.953Z,12.76
2023-02-23T08:17:11.936Z,12.76
2023-02-23T08:18:11.978Z,12.75
2023-02-23T08:19:11.924Z,12.70
2023-02-23T08:20:11.927Z,12.42
2023-02-23T08:21:11.926Z,12.39
2023-02-23T08:22:11.897Z,12.37
2023-02-23T08:23:11.872Z,12.45
2023-02-23T08:24:11.863Z,12.57
2023-02-23T08:25:11.848Z,12.62
2023-02-23T08:26:11.843Z,12.72
2023-02-23T08:27:11.844Z,12.76
2023-02-23T08:28:11.812Z,12.76
2023-02-23T08:29:11.964Z,12.76
2023-02-23T08:30:11.818Z,12.73
2023-02-23T08:31:11.821Z,12.72
2023-02-23T08:32:11.914Z,12.75
2023-02-23T08:33:11.782Z,12.79
2023-02-23T08:34:11.754Z,12.85
2023-02-23T08:35:11.733Z,12.90
2023-02-23T08:36:11.734Z,12.90
2023-02-23T08:37:11.722Z,12.90
2023-02-23T08:38:11.720Z,12.93
2023-02-23T08:39:12.062Z,13.00
2023-02-23T08:40:11.695Z,13.03
2023-02-23T08:41:11.674Z,13.09
2023-02-23T08:42:11.662Z,13.08
2023-02-23T08:43:11.660Z,13.05
2023-02-23T08:44:11.640Z,13.08
2023-02-23T08:45:11.642Z,13.12
2023-02-23T08:46:11.706Z,13.13
2023-02-23T08:47:11.679Z,13.12
2023-02-23T08:48:11.594Z,13.13
2023-02-23T08:49:11.584Z,13.09
2023-02-23T08:50:11.574Z,13.05
2023-02-23T08:51:11.630Z,13.09
2023-02-23T08:52:11.545Z,13.12
2023-02-23T08:53:11.529Z,13.13
2023-02-23T08:54:11.535Z,13.08
2023-02-23T08:55:11.510Z,13.00
2023-02-23T08:56:11.515Z,13.00
2023-02-23T08:57:12.699Z,13.05
2023-02-23T08:58:11.593Z,13.13
2023-02-23T08:59:11.576Z,13.19
2023-02-23T09:00:11.557Z,13.27
2023-02-23T09:01:11.493Z,13.27
2023-02-23T09:02:11.448Z,13.31
2023-02-23T09:03:11.430Z,13.38
2023-02-23T09:04:11.409Z,13.44
2023-02-23T09:05:11.470Z,13.49
2023-02-23T09:06:11.426Z,13.50
2023-02-23T09:07:11.412Z,13.56
2023-02-23T09:08:11.469Z,13.59
2023-02-23T09:09:11.388Z,13.65
2023-02-23T09:10:11.339Z,13.68
2023-02-23T09:11:11.403Z,13.71
2023-02-23T09:12:11.329Z,13.75
2023-02-23T09:13:11.315Z,13.77
2023-02-23T09:14:11.318Z,13.78
2023-02-23T09:15:11.374Z,13.83
2023-02-23T09:16:11.323Z,13.87
2023-02-23T09:17:11.277Z,13.87
2023-02-23T09:18:11.260Z,13.81
2023-02-23T09:19:11.246Z,13.83
2023-02-23T09:20:11.247Z,13.83
2023-02-23T09:21:11.220Z,13.74
2023-02-23T09:22:11.228Z,13.70
2023-02-23T09:23:11.340Z,13.72
2023-02-23T09:24:11.190Z,13.72
2023-02-23T09:25:11.167Z,13.59
2023-02-23T09:26:11.181Z,13.47
2023-02-23T09:27:11.146Z,13.33
2023-02-23T09:28:18.206Z,13.52
2023-02-23T09:29:12.754Z,13.59
2023-02-23T09:30:11.115Z,13.49
2023-02-23T09:31:11.197Z,13.41
2023-02-23T09:32:11.250Z,13.31
2023-02-23T09:33:11.095Z,13.44
2023-02-23T09:34:11.095Z,13.50
2023-02-23T09:35:11.057Z,13.70
2023-02-23T09:36:11.048Z,13.74
2023-02-23T09:37:11.044Z,13.72
2023-02-23T09:38:11.046Z,13.83
2023-02-23T09:39:11.014Z,13.93
2023-02-23T09:40:11.014Z,13.95
2023-02-23T09:41:10.986Z,13.99
2023-02-23T09:42:10.985Z,14.00
2023-02-23T09:43:10.985Z,14.08
2023-02-23T09:44:10.956Z,14.10
2023-02-23T09:45:10.944Z,14.12
2023-02-23T09:46:10.963Z,14.15
2023-02-23T09:47:11.629Z,14.04
2023-02-23T09:48:10.909Z,14.08
2023-02-23T09:49:10.916Z,14.11
2023-02-23T09:50:10.891Z,14.05
2023-02-23T09:51:10.888Z,13.97
2023-02-23T09:52:10.865Z,13.93
2023-02-23T09:53:10.858Z,13.95
2023-02-23T09:54:10.870Z,14.04
2023-02-23T09:55:10.849Z,14.11
2023-02-23T09:56:10.830Z,14.17
2023-02-23T09:57:10.817Z,14.20
2023-02-23T09:58:10.800Z,14.23
2023-02-23T09:59:10.791Z,14.29
2023-02-23T10:00:10.781Z,14.35
2023-02-23T10:01:10.795Z,14.40
2023-02-23T10:02:10.773Z,14.47
2023-02-23T10:03:10.740Z,14.50
2023-02-23T10:04:10.758Z,14.47
2023-02-23T10:05:10.721Z,14.51
2023-02-23T10:06:10.715Z,14.48
2023-02-23T10:07:10.723Z,14.59
2023-02-23T10:08:10.692Z,14.65
2023-02-23T10:09:10.679Z,14.68
2023-02-23T10:10:10.771Z,14.78
2023-02-23T10:11:10.654Z,14.81
2023-02-23T10:12:10.652Z,14.84
2023-02-23T10:13:10.646Z,14.88
2023-02-23T10:14:10.624Z,15.00
2023-02-23T10:15:10.610Z,15.03
2023-02-23T10:16:10.670Z,15.14
2023-02-23T10:17:10.584Z,15.15
2023-02-23T10:18:10.606Z,15.27
2023-02-23T10:19:10.563Z,15.39
2023-02-23T10:20:10.555Z,15.40
2023-02-23T10:21:10.544Z,15.39
2023-02-23T10:22:10.548Z,15.40
2023-02-23T10:23:10.523Z,15.51
2023-02-23T10:24:10.542Z,15.54
2023-02-23T10:25:10.505Z,15.64
2023-02-23T10:26:10.504Z,15.68
2023-02-23T10:27:10.494Z,15.79
2023-02-23T10:28:10.532Z,15.88
2023-02-23T10:29:10.453Z,15.98
2023-02-23T10:30:10.462Z,16.08
2023-02-23T10:31:10.551Z,16.17
2023-02-23T10:32:10.530Z,16.24
2023-02-23T10:33:10.404Z,16.32
2023-02-23T10:34:10.404Z,16.46
2023-02-23T10:35:10.383Z,16.54
2023-02-23T10:36:13.633Z,16.38
2023-02-23T10:37:10.363Z,16.35
2023-02-23T10:38:10.354Z,16.46
2023-02-23T10:39:10.342Z,16.41
2023-02-23T10:40:10.357Z,16.29
2023-02-23T10:41:10.321Z,16.38
2023-02-23T10:42:10.330Z,16.43
2023-02-23T10:43:10.297Z,16.47
2023-02-23T10:44:16.710Z,16.46
2023-02-23T10:45:11.273Z,16.43
2023-02-23T10:46:10.279Z,16.28
2023-02-23T10:47:10.274Z,16.09
2023-02-23T10:48:10.289Z,15.92
2023-02-23T10:49:10.231Z,16.01
2023-02-23T10:50:10.216Z,16.15
2023-02-23T10:51:10.204Z,16.28
2023-02-23T10:52:10.193Z,16.29
2023-02-23T10:53:10.207Z,16.29
2023-02-23T10:54:10.181Z,16.35
2023-02-23T10:55:10.154Z,16.49
2023-02-23T10:56:10.158Z,16.65
2023-02-23T10:57:10.135Z,16.71
2023-02-23T10:58:10.148Z,16.76
2023-02-23T10:59:10.104Z,16.56
2023-02-23T11:00:10.115Z,16.42
2023-02-23T11:01:10.095Z,16.64
2023-02-23T11:02:10.143Z,16.69
2023-02-23T11:03:10.063Z,16.66
2023-02-23T11:04:10.075Z,16.79
2023-02-23T11:05:10.043Z,16.90
2023-02-23T11:06:10.033Z,16.94
2023-02-23T11:07:10.023Z,17.02
2023-02-23T11:08:10.014Z,16.91
2023-02-23T11:09:09.993Z,16.74
2023-02-23T11:10:10.005Z,16.39
2023-02-23T11:11:09.974Z,16.28
2023-02-23T11:12:09.968Z,16.10
2023-02-23T11:13:09.953Z,16.05
2023-02-23T11:14:09.944Z,16.01
2023-02-23T11:15:09.962Z,16.10
2023-02-23T11:16:09.951Z,16.20
2023-02-23T11:17:09.903Z,16.20
2023-02-23T11:18:09.902Z,16.02
2023-02-23T11:19:09.895Z,16.01
2023-02-23T11:20:09.879Z,16.15
2023-02-23T11:21:09.896Z,16.21
2023-02-23T11:22:09.844Z,16.32
2023-02-23T11:23:14.723Z,16.39
2023-02-23T11:24:10.867Z,16.56
2023-02-23T11:25:09.832Z,16.60
2023-02-23T11:26:09.804Z,16.69
2023-02-23T11:27:09.812Z,16.54
2023-02-23T11:28:09.792Z,16.50
2023-02-23T11:29:09.796Z,16.50
2023-02-23T11:30:09.757Z,16.58
2023-02-23T11:31:09.877Z,16.72
2023-02-23T11:32:10.549Z,16.79
2023-02-23T11:33:09.773Z,16.96
2023-02-23T11:34:09.719Z,16.97
2023-02-23T11:35:09.712Z,16.89
2023-02-23T11:36:09.698Z,16.81
2023-02-23T11:37:09.781Z,16.81
2023-02-23T11:38:09.684Z,16.83
2023-02-23T11:39:09.666Z,16.84
2023-02-23T11:40:09.657Z,16.81
2023-02-23T11:41:09.646Z,16.84
2023-02-23T11:42:09.629Z,16.97
2023-02-23T11:43:09.663Z,16.79
2023-02-23T11:44:09.605Z,16.66
2023-02-23T11:45:09.625Z,16.69
2023-02-23T11:46:09.620Z,16.64
2023-02-23T11:47:09.625Z,16.56
2023-02-23T11:48:09.555Z,16.57
2023-02-23T11:49:09.572Z,16.47
2023-02-23T11:50:09.546Z,16.36
2023-02-23T11:51:09.526Z,16.42
2023-02-23T11:52:09.508Z,16.38
2023-02-23T11:53:09.510Z,16.33
2023-02-23T11:54:09.485Z,16.36
2023-02-23T11:55:09.497Z,16.49
2023-02-23T11:56:09.580Z,16.53
2023-02-23T11:57:09.457Z,16.57
2023-02-23T11:58:09.441Z,16.60
2023-02-23T11:59:09.438Z,16.68
2023-02-23T12:00:09.429Z,16.69
2023-02-23T12:01:09.438Z,16.76
2023-02-23T12:02:09.397Z,16.86
2023-02-23T12:03:09.443Z,16.90
2023-02-23T12:04:09.369Z,16.94
2023-02-23T12:05:09.414Z,16.90
2023-02-23T12:06:09.422Z,16.89
2023-02-23T12:07:09.360Z,16.93
2023-02-23T12:08:09.494Z,16.96
2023-02-23T12:09:09.353Z,17.02
2023-02-23T12:10:09.352Z,17.01
2023-02-23T12:11:09.355Z,16.90
2023-02-23T12:12:09.348Z,16.90
2023-02-23T12:13:09.354Z,16.65
2023-02-23T12:14:09.300Z,16.49
2023-02-23T12:15:09.253Z,16.26
2023-02-23T12:16:09.260Z,16.16
2023-02-23T12:17:09.234Z,16.17
2023-02-23T12:18:09.221Z,16.20
2023-02-23T12:19:09.231Z,16.29
2023-02-23T12:20:09.217Z,16.32
2023-02-23T12:21:09.182Z,16.41
2023-02-23T12:22:09.171Z,16.49
2023-02-23T12:23:09.163Z,16.58
2023-02-23T12:24:09.153Z,16.60
2023-02-23T12:25:09.165Z,16.66
2023-02-23T12:26:09.132Z,16.66
2023-02-23T12:27:09.124Z,16.61
2023-02-23T12:28:18.505Z,16.69
2023-02-23T12:29:10.109Z,16.66
2023-02-23T12:30:09.469Z,16.57
2023-02-23T12:31:09.073Z,16.51
2023-02-23T12:32:09.161Z,16.54
2023-02-23T12:33:09.050Z,16.60
2023-02-23T12:34:09.039Z,16.68
2023-02-23T12:35:09.030Z,16.78
2023-02-23T12:36:09.045Z,16.58
2023-02-23T12:37:09.009Z,16.43
2023-02-23T12:38:09.000Z,16.50
2023-02-23T12:39:09.764Z,16.51
2023-02-23T12:40:08.972Z,16.47
2023-02-23T12:41:08.959Z,16.53
2023-02-23T12:42:08.967Z,16.47
2023-02-23T12:43:08.972Z,16.38
2023-02-23T12:44:08.929Z,16.49
2023-02-23T12:45:08.911Z,16.49
2023-02-23T12:46:09.018Z,16.39
2023-02-23T12:47:08.889Z,16.29
2023-02-23T12:48:08.895Z,16.31
2023-02-23T12:49:08.868Z,16.33
2023-02-23T12:50:08.849Z,16.43
2023-02-23T12:51:08.849Z,16.31
2023-02-23T12:52:08.832Z,16.36